sensor_id;sensor_type;location;lat;lon;timestamp;P1;durP1;ratioP1;P2;durP2;ratioP2
35602;SDS011;21725;50.836;4.368;2022-09-23T00:01:42;8.65;;;5.43;;
35602;SDS011;21725;50.836;4.368;2022-09-23T00:04:26;12.05;;;5.00;;
35602;SDS011;21725;50.836;4.368;2022-09-23T00:28:48;6.72;;;3.60;;
35602;SDS011;21725;50.836;4.368;2022-09-23T00:31:17;6.57;;;3.60;;
35602;SDS011;21725;50.836;4.368;2022-09-23T00:33:59;7.68;;;3.97;;
35602;SDS011;21725;50.836;4.368;2022-09-23T00:36:36;7.80;;;4.72;;
35602;SDS011;21725;50.836;4.368;2022-09-23T00:39:23;8.38;;;4.50;;
35602;SDS011;21725;50.836;4.368;2022-09-23T00:42:05;8.60;;;4.03;;
35602;SDS011;21725;50.836;4.368;2022-09-23T00:50:44;12.55;;;3.63;;
35602;SDS011;21725;50.836;4.368;2022-09-23T00:53:41;10.02;;;3.42;;
35602;SDS011;21725;50.836;4.368;2022-09-23T00:56:22;10.57;;;3.75;;
35602;SDS011;21725;50.836;4.368;2022-09-23T00:59:29;10.90;;;3.45;;
35602;SDS011;21725;50.836;4.368;2022-09-23T01:02:07;6.03;;;3.20;;
35602;SDS011;21725;50.836;4.368;2022-09-23T01:04:57;13.85;;;4.03;;
35602;SDS011;21725;50.836;4.368;2022-09-23T01:37:54;11.93;;;4.60;;
35602;SDS011;21725;50.836;4.368;2022-09-23T01:40:59;15.25;;;5.47;;
35602;SDS011;21725;50.836;4.368;2022-09-23T01:47:28;9.10;;;5.05;;
35602;SDS011;21725;50.836;4.368;2022-09-23T01:50:31;14.70;;;4.80;;
35602;SDS011;21725;50.836;4.368;2022-09-23T01:53:45;9.00;;;5.38;;
35602;SDS011;21725;50.836;4.368;2022-09-23T01:56:29;9.20;;;5.10;;
35602;SDS011;21725;50.836;4.368;2022-09-23T01:59:40;11.02;;;5.03;;
35602;SDS011;21725;50.836;4.368;2022-09-23T02:02:33;9.15;;;5.35;;
35602;SDS011;21725;50.836;4.368;2022-09-23T02:33:16;8.27;;;3.67;;
35602;SDS011;21725;50.836;4.368;2022-09-23T02:39:21;8.55;;;4.07;;
35602;SDS011;21725;50.836;4.368;2022-09-23T02:42:17;6.65;;;2.92;;
35602;SDS011;21725;50.836;4.368;2022-09-23T02:45:12;17.63;;;3.90;;
35602;SDS011;21725;50.836;4.368;2022-09-23T02:47:52;6.70;;;3.03;;
35602;SDS011;21725;50.836;4.368;2022-09-23T02:50:52;7.22;;;3.65;;
35602;SDS011;21725;50.836;4.368;2022-09-23T02:53:34;8.05;;;4.13;;
35602;SDS011;21725;50.836;4.368;2022-09-23T02:56:22;12.23;;;4.40;;
35602;SDS011;21725;50.836;4.368;2022-09-23T02:59:08;8.57;;;3.97;;
35602;SDS011;21725;50.836;4.368;2022-09-23T03:05:18;12.60;;;3.28;;
35602;SDS011;21725;50.836;4.368;2022-09-23T03:29:07;10.20;;;4.45;;
35602;SDS011;21725;50.836;4.368;2022-09-23T03:31:53;6.75;;;4.25;;
35602;SDS011;21725;50.836;4.368;2022-09-23T03:34:45;7.78;;;4.45;;
35602;SDS011;21725;50.836;4.368;2022-09-23T03:40:36;10.80;;;4.90;;
35602;SDS011;21725;50.836;4.368;2022-09-23T03:43:16;9.73;;;5.85;;
35602;SDS011;21725;50.836;4.368;2022-09-23T03:46:29;13.18;;;5.82;;
35602;SDS011;21725;50.836;4.368;2022-09-23T03:49:25;12.82;;;5.35;;
35602;SDS011;21725;50.836;4.368;2022-09-23T03:54:57;16.65;;;7.68;;
35602;SDS011;21725;50.836;4.368;2022-09-23T03:57:34;19.58;;;9.43;;
35602;SDS011;21725;50.836;4.368;2022-09-23T04:00:16;17.17;;;7.43;;
35602;SDS011;21725;50.836;4.368;2022-09-23T04:02:55;20.48;;;8.80;;
35602;SDS011;21725;50.836;4.368;2022-09-23T04:05:39;24.73;;;11.52;;
35602;SDS011;21725;50.836;4.368;2022-09-23T04:29:12;23.88;;;11.15;;
35602;SDS011;21725;50.836;4.368;2022-09-23T04:31:40;22.73;;;9.88;;
35602;SDS011;21725;50.836;4.368;2022-09-23T04:34:16;17.50;;;9.27;;
35602;SDS011;21725;50.836;4.368;2022-09-23T04:36:47;20.85;;;9.32;;
35602;SDS011;21725;50.836;4.368;2022-09-23T04:39:43;23.73;;;10.77;;
35602;SDS011;21725;50.836;4.368;2022-09-23T04:42:28;29.60;;;12.50;;
35602;SDS011;21725;50.836;4.368;2022-09-23T04:45:08;19.73;;;8.68;;
35602;SDS011;21725;50.836;4.368;2022-09-23T04:51:34;18.55;;;10.38;;
35602;SDS011;21725;50.836;4.368;2022-09-23T04:54:16;21.35;;;10.05;;
35602;SDS011;21725;50.836;4.368;2022-09-23T04:57:24;22.23;;;11.18;;
35602;SDS011;21725;50.836;4.368;2022-09-23T05:00:09;19.63;;;10.55;;
35602;SDS011;21725;50.836;4.368;2022-09-23T05:03:18;24.70;;;11.32;;
35602;SDS011;21725;50.836;4.368;2022-09-23T05:05:57;22.73;;;11.70;;
35602;SDS011;21725;50.836;4.368;2022-09-23T05:32:13;24.98;;;11.40;;
35602;SDS011;21725;50.836;4.368;2022-09-23T05:37:49;22.88;;;9.57;;
35602;SDS011;21725;50.836;4.368;2022-09-23T05:46:29;21.85;;;9.05;;
35602;SDS011;21725;50.836;4.368;2022-09-23T05:49:12;23.23;;;9.73;;
35602;SDS011;21725;50.836;4.368;2022-09-23T05:52:18;22.90;;;10.60;;
35602;SDS011;21725;50.836;4.368;2022-09-23T05:58:11;22.48;;;8.85;;
35602;SDS011;21725;50.836;4.368;2022-09-23T06:00:47;16.63;;;8.00;;
35602;SDS011;21725;50.836;4.368;2022-09-23T06:03:39;15.48;;;8.95;;
35602;SDS011;21725;50.836;4.368;2022-09-23T06:29:09;20.33;;;10.65;;
35602;SDS011;21725;50.836;4.368;2022-09-23T06:31:51;22.77;;;11.88;;
35602;SDS011;21725;50.836;4.368;2022-09-23T06:34:27;26.13;;;12.82;;
35602;SDS011;21725;50.836;4.368;2022-09-23T06:37:31;24.77;;;13.35;;
35602;SDS011;21725;50.836;4.368;2022-09-23T06:40:42;24.55;;;12.95;;
35602;SDS011;21725;50.836;4.368;2022-09-23T06:43:27;28.67;;;12.30;;
35602;SDS011;21725;50.836;4.368;2022-09-23T06:46:04;23.60;;;13.13;;
35602;SDS011;21725;50.836;4.368;2022-09-23T06:51:09;24.35;;;12.75;;
35602;SDS011;21725;50.836;4.368;2022-09-23T06:54:13;18.38;;;10.05;;
35602;SDS011;21725;50.836;4.368;2022-09-23T06:57:03;25.45;;;12.65;;
35602;SDS011;21725;50.836;4.368;2022-09-23T07:00:04;27.63;;;11.90;;
35602;SDS011;21725;50.836;4.368;2022-09-23T07:03:06;23.48;;;11.90;;
35602;SDS011;21725;50.836;4.368;2022-09-23T07:40:03;22.45;;;8.88;;
35602;SDS011;21725;50.836;4.368;2022-09-23T07:42:42;15.75;;;8.00;;
35602;SDS011;21725;50.836;4.368;2022-09-23T07:45:28;16.55;;;9.20;;
35602;SDS011;21725;50.836;4.368;2022-09-23T07:48:21;15.43;;;7.15;;
35602;SDS011;21725;50.836;4.368;2022-09-23T07:51:04;18.55;;;8.90;;
35602;SDS011;21725;50.836;4.368;2022-09-23T07:57:06;12.65;;;6.53;;
35602;SDS011;21725;50.836;4.368;2022-09-23T08:01:57;25.20;;;8.05;;
35602;SDS011;21725;50.836;4.368;2022-09-23T08:43:36;13.43;;;5.50;;
35602;SDS011;21725;50.836;4.368;2022-09-23T08:46:43;18.83;;;6.03;;
35602;SDS011;21725;50.836;4.368;2022-09-23T09:01:57;11.55;;;5.80;;
35602;SDS011;21725;50.836;4.368;2022-09-23T09:29:34;9.13;;;5.65;;
35602;SDS011;21725;50.836;4.368;2022-09-23T09:32:39;15.02;;;5.82;;
35602;SDS011;21725;50.836;4.368;2022-09-23T09:41:38;15.50;;;6.10;;
35602;SDS011;21725;50.836;4.368;2022-09-23T09:50:15;13.90;;;5.55;;
35602;SDS011;21725;50.836;4.368;2022-09-23T09:56:11;15.68;;;6.65;;
35602;SDS011;21725;50.836;4.368;2022-09-23T10:02:11;15.48;;;6.43;;
35602;SDS011;21725;50.836;4.368;2022-09-23T10:05:33;14.13;;;6.60;;
35602;SDS011;21725;50.836;4.368;2022-09-23T10:31:08;12.70;;;5.78;;
35602;SDS011;21725;50.836;4.368;2022-09-23T10:34:00;13.38;;;7.28;;
35602;SDS011;21725;50.836;4.368;2022-09-23T10:40:16;14.90;;;7.18;;
35602;SDS011;21725;50.836;4.368;2022-09-23T10:46:24;14.07;;;7.10;;
35602;SDS011;21725;50.836;4.368;2022-09-23T10:52:37;12.30;;;8.32;;
35602;SDS011;21725;50.836;4.368;2022-09-23T11:04:33;12.43;;;6.70;;
35602;SDS011;21725;50.836;4.368;2022-09-23T11:34:57;11.32;;;5.72;;
35602;SDS011;21725;50.836;4.368;2022-09-23T11:37:52;11.02;;;5.18;;
35602;SDS011;21725;50.836;4.368;2022-09-23T11:40:43;14.35;;;5.60;;
35602;SDS011;21725;50.836;4.368;2022-09-23T11:43:37;9.25;;;5.15;;
35602;SDS011;21725;50.836;4.368;2022-09-23T11:49:04;8.98;;;5.60;;
35602;SDS011;21725;50.836;4.368;2022-09-23T11:57:56;10.10;;;5.10;;
35602;SDS011;21725;50.836;4.368;2022-09-23T12:00:31;9.32;;;4.38;;
35602;SDS011;21725;50.836;4.368;2022-09-23T12:03:32;10.70;;;4.50;;
35602;SDS011;21725;50.836;4.368;2022-09-23T12:26:22;7.40;;;4.88;;
35602;SDS011;21725;50.836;4.368;2022-09-23T12:29:23;12.05;;;5.35;;
35602;SDS011;21725;50.836;4.368;2022-09-23T12:32:06;14.35;;;5.38;;
35602;SDS011;21725;50.836;4.368;2022-09-23T12:35:17;7.03;;;4.20;;
35602;SDS011;21725;50.836;4.368;2022-09-23T12:37:51;7.90;;;3.75;;
35602;SDS011;21725;50.836;4.368;2022-09-23T12:40:59;12.45;;;4.97;;
35602;SDS011;21725;50.836;4.368;2022-09-23T12:44:11;8.65;;;4.28;;
35602;SDS011;21725;50.836;4.368;2022-09-23T12:55:57;9.75;;;5.43;;
35602;SDS011;21725;50.836;4.368;2022-09-23T13:01:35;12.45;;;5.07;;
35602;SDS011;21725;50.836;4.368;2022-09-23T13:26:30;11.30;;;5.45;;
35602;SDS011;21725;50.836;4.368;2022-09-23T13:29:26;10.85;;;6.20;;
35602;SDS011;21725;50.836;4.368;2022-09-23T13:32:21;13.38;;;7.22;;
35602;SDS011;21725;50.836;4.368;2022-09-23T13:37:53;14.57;;;6.40;;
35602;SDS011;21725;50.836;4.368;2022-09-23T13:40:35;8.82;;;5.45;;
35602;SDS011;21725;50.836;4.368;2022-09-23T13:43:26;12.17;;;6.30;;
35602;SDS011;21725;50.836;4.368;2022-09-23T13:46:11;9.23;;;5.40;;
35602;SDS011;21725;50.836;4.368;2022-09-23T13:49:00;14.27;;;5.07;;
35602;SDS011;21725;50.836;4.368;2022-09-23T13:51:43;13.23;;;5.70;;
35602;SDS011;21725;50.836;4.368;2022-09-23T13:54:25;10.45;;;5.20;;
35602;SDS011;21725;50.836;4.368;2022-09-23T14:02:42;8.50;;;5.53;;
35602;SDS011;21725;50.836;4.368;2022-09-23T14:05:22;9.00;;;5.50;;
35602;SDS011;21725;50.836;4.368;2022-09-23T14:27:43;8.25;;;6.13;;
35602;SDS011;21725;50.836;4.368;2022-09-23T14:30:26;10.10;;;5.68;;
35602;SDS011;21725;50.836;4.368;2022-09-23T14:33:09;8.82;;;5.40;;
35602;SDS011;21725;50.836;4.368;2022-09-23T14:35:53;7.72;;;5.03;;
35602;SDS011;21725;50.836;4.368;2022-09-23T14:38:41;10.07;;;5.50;;
35602;SDS011;21725;50.836;4.368;2022-09-23T14:41:28;11.20;;;5.93;;
35602;SDS011;21725;50.836;4.368;2022-09-23T14:44:39;12.88;;;5.30;;
35602;SDS011;21725;50.836;4.368;2022-09-23T14:47:15;8.57;;;5.18;;
35602;SDS011;21725;50.836;4.368;2022-09-23T14:49:51;9.35;;;5.20;;
35602;SDS011;21725;50.836;4.368;2022-09-23T14:52:49;11.20;;;5.10;;
35602;SDS011;21725;50.836;4.368;2022-09-23T14:55:17;10.48;;;5.00;;
35602;SDS011;21725;50.836;4.368;2022-09-23T15:01:01;11.82;;;5.00;;
35602;SDS011;21725;50.836;4.368;2022-09-23T15:03:45;11.68;;;5.22;;
35602;SDS011;21725;50.836;4.368;2022-09-23T15:42:52;9.80;;;4.95;;
35602;SDS011;21725;50.836;4.368;2022-09-23T15:51:41;10.30;;;5.28;;
35602;SDS011;21725;50.836;4.368;2022-09-23T15:54:17;11.35;;;5.43;;
35602;SDS011;21725;50.836;4.368;2022-09-23T15:59:27;11.82;;;5.85;;
35602;SDS011;21725;50.836;4.368;2022-09-23T16:02:13;14.07;;;6.72;;
35602;SDS011;21725;50.836;4.368;2022-09-23T16:04:55;10.55;;;5.22;;
35602;SDS011;21725;50.836;4.368;2022-09-23T16:28:08;12.80;;;7.35;;
35602;SDS011;21725;50.836;4.368;2022-09-23T16:30:47;19.27;;;6.53;;
35602;SDS011;21725;50.836;4.368;2022-09-23T16:33:28;9.18;;;5.20;;
35602;SDS011;21725;50.836;4.368;2022-09-23T16:36:21;9.23;;;4.85;;
35602;SDS011;21725;50.836;4.368;2022-09-23T16:39:19;11.70;;;6.88;;
35602;SDS011;21725;50.836;4.368;2022-09-23T16:42:13;13.38;;;7.10;;
35602;SDS011;21725;50.836;4.368;2022-09-23T16:44:52;10.63;;;6.10;;
35602;SDS011;21725;50.836;4.368;2022-09-23T16:47:20;9.82;;;5.35;;
35602;SDS011;21725;50.836;4.368;2022-09-23T16:50:23;14.00;;;6.80;;
35602;SDS011;21725;50.836;4.368;2022-09-23T16:56:15;13.63;;;7.25;;
35602;SDS011;21725;50.836;4.368;2022-09-23T16:59:03;11.35;;;5.72;;
35602;SDS011;21725;50.836;4.368;2022-09-23T17:01:49;14.13;;;7.35;;
35602;SDS011;21725;50.836;4.368;2022-09-23T17:04:53;16.20;;;7.85;;
35602;SDS011;21725;50.836;4.368;2022-09-23T17:42:18;15.47;;;9.63;;
35602;SDS011;21725;50.836;4.368;2022-09-23T17:45:05;15.60;;;9.48;;
35602;SDS011;21725;50.836;4.368;2022-09-23T17:51:00;17.10;;;9.35;;
35602;SDS011;21725;50.836;4.368;2022-09-23T17:56:24;21.98;;;11.95;;
35602;SDS011;21725;50.836;4.368;2022-09-23T18:02:19;18.58;;;9.98;;
35602;SDS011;21725;50.836;4.368;2022-09-23T18:05:21;17.27;;;9.88;;
35602;SDS011;21725;50.836;4.368;2022-09-23T18:41:38;18.38;;;13.10;;
35602;SDS011;21725;50.836;4.368;2022-09-23T18:44:26;16.75;;;10.43;;
35602;SDS011;21725;50.836;4.368;2022-09-23T18:47:35;17.55;;;10.30;;
35602;SDS011;21725;50.836;4.368;2022-09-23T18:50:38;14.88;;;11.32;;
35602;SDS011;21725;50.836;4.368;2022-09-23T18:53:17;13.60;;;10.15;;
35602;SDS011;21725;50.836;4.368;2022-09-23T18:56:17;13.93;;;9.80;;
35602;SDS011;21725;50.836;4.368;2022-09-23T19:01:43;12.80;;;9.48;;
35602;SDS011;21725;50.836;4.368;2022-09-23T19:29:51;17.20;;;12.13;;
35602;SDS011;21725;50.836;4.368;2022-09-23T19:32:19;15.30;;;10.75;;
35602;SDS011;21725;50.836;4.368;2022-09-23T19:34:50;16.63;;;12.77;;
35602;SDS011;21725;50.836;4.368;2022-09-23T19:37:29;21.60;;;15.02;;
35602;SDS011;21725;50.836;4.368;2022-09-23T19:40:06;19.13;;;14.32;;
35602;SDS011;21725;50.836;4.368;2022-09-23T19:42:32;19.98;;;13.18;;
35602;SDS011;21725;50.836;4.368;2022-09-23T19:44:59;18.88;;;14.80;;
35602;SDS011;21725;50.836;4.368;2022-09-23T19:47:25;23.77;;;15.57;;
35602;SDS011;21725;50.836;4.368;2022-09-23T19:49:51;23.13;;;15.00;;
35602;SDS011;21725;50.836;4.368;2022-09-23T19:52:19;19.60;;;13.82;;
35602;SDS011;21725;50.836;4.368;2022-09-23T19:54:45;18.25;;;13.30;;
35602;SDS011;21725;50.836;4.368;2022-09-23T19:57:16;17.65;;;12.77;;
35602;SDS011;21725;50.836;4.368;2022-09-23T19:59:44;21.13;;;14.82;;
35602;SDS011;21725;50.836;4.368;2022-09-23T20:02:10;21.38;;;14.23;;
35602;SDS011;21725;50.836;4.368;2022-09-23T20:04:36;22.08;;;13.25;;
35602;SDS011;21725;50.836;4.368;2022-09-23T20:28:18;19.27;;;14.02;;
35602;SDS011;21725;50.836;4.368;2022-09-23T20:31:02;18.30;;;12.95;;
35602;SDS011;21725;50.836;4.368;2022-09-23T20:33:58;18.30;;;13.32;;
35602;SDS011;21725;50.836;4.368;2022-09-23T20:39:58;19.27;;;13.90;;
35602;SDS011;21725;50.836;4.368;2022-09-23T20:42:42;18.48;;;13.38;;
35602;SDS011;21725;50.836;4.368;2022-09-23T20:45:34;19.45;;;12.02;;
35602;SDS011;21725;50.836;4.368;2022-09-23T20:48:03;19.17;;;12.45;;
35602;SDS011;21725;50.836;4.368;2022-09-23T20:50:48;16.35;;;13.07;;
35602;SDS011;21725;50.836;4.368;2022-09-23T20:53:22;19.63;;;14.15;;
35602;SDS011;21725;50.836;4.368;2022-09-23T20:58:37;16.25;;;11.98;;
35602;SDS011;21725;50.836;4.368;2022-09-23T21:01:19;17.00;;;12.38;;
35602;SDS011;21725;50.836;4.368;2022-09-23T21:03:58;20.33;;;13.48;;
35602;SDS011;21725;50.836;4.368;2022-09-23T21:28:50;17.80;;;14.20;;
35602;SDS011;21725;50.836;4.368;2022-09-23T21:31:34;21.13;;;14.27;;
35602;SDS011;21725;50.836;4.368;2022-09-23T21:34:48;20.02;;;13.27;;
35602;SDS011;21725;50.836;4.368;2022-09-23T21:37:44;17.98;;;13.57;;
35602;SDS011;21725;50.836;4.368;2022-09-23T21:40:21;16.50;;;13.85;;
35602;SDS011;21725;50.836;4.368;2022-09-23T21:43:33;21.67;;;14.05;;
35602;SDS011;21725;50.836;4.368;2022-09-23T21:46:12;25.27;;;15.73;;
35602;SDS011;21725;50.836;4.368;2022-09-23T21:48:50;20.75;;;16.70;;
35602;SDS011;21725;50.836;4.368;2022-09-23T21:51:30;19.65;;;14.70;;
35602;SDS011;21725;50.836;4.368;2022-09-23T21:54:36;19.75;;;14.68;;
35602;SDS011;21725;50.836;4.368;2022-09-23T21:57:30;26.48;;;16.60;;
35602;SDS011;21725;50.836;4.368;2022-09-23T22:00:06;19.88;;;15.20;;
35602;SDS011;21725;50.836;4.368;2022-09-23T22:02:43;21.20;;;15.95;;
35602;SDS011;21725;50.836;4.368;2022-09-23T22:29:16;21.57;;;18.40;;
35602;SDS011;21725;50.836;4.368;2022-09-23T22:32:09;26.00;;;17.55;;
35602;SDS011;21725;50.836;4.368;2022-09-23T22:35:02;20.98;;;16.92;;
35602;SDS011;21725;50.836;4.368;2022-09-23T22:38:04;23.83;;;18.58;;
35602;SDS011;21725;50.836;4.368;2022-09-23T22:40:53;19.13;;;15.95;;
35602;SDS011;21725;50.836;4.368;2022-09-23T22:43:33;21.42;;;17.23;;
35602;SDS011;21725;50.836;4.368;2022-09-23T22:46:12;20.20;;;17.38;;
35602;SDS011;21725;50.836;4.368;2022-09-23T22:48:51;23.42;;;18.55;;
35602;SDS011;21725;50.836;4.368;2022-09-23T22:54:15;21.92;;;17.10;;
35602;SDS011;21725;50.836;4.368;2022-09-23T22:57:19;20.23;;;15.93;;
35602;SDS011;21725;50.836;4.368;2022-09-23T23:03:06;18.38;;;15.65;;
35602;SDS011;21725;50.836;4.368;2022-09-23T23:05:57;19.05;;;16.38;;
35602;SDS011;21725;50.836;4.368;2022-09-23T23:28:33;22.30;;;15.95;;
35602;SDS011;21725;50.836;4.368;2022-09-23T23:34:19;21.63;;;17.00;;
35602;SDS011;21725;50.836;4.368;2022-09-23T23:37:15;23.58;;;16.13;;
35602;SDS011;21725;50.836;4.368;2022-09-23T23:39:51;18.20;;;14.57;;
35602;SDS011;21725;50.836;4.368;2022-09-23T23:42:47;18.23;;;13.57;;
35602;SDS011;21725;50.836;4.368;2022-09-23T23:45:25;16.00;;;12.50;;
35602;SDS011;21725;50.836;4.368;2022-09-23T23:47:58;15.07;;;11.27;;
35602;SDS011;21725;50.836;4.368;2022-09-23T23:50:36;13.70;;;10.13;;
35602;SDS011;21725;50.836;4.368;2022-09-23T23:53:29;16.30;;;9.23;;
35602;SDS011;21725;50.836;4.368;2022-09-23T23:56:23;16.20;;;11.07;;
35602;SDS011;21725;50.836;4.368;2022-09-23T23:59:19;20.08;;;10.50;;
